sensor_id;sensor_type;location;lat;lon;timestamp;pressure;altitude;pressure_sealevel;temperature;humidity
68793;BME280;55778;54.346;10.210;2023-06-01T00:02:15;101707.00;;;9.76;100.00
68793;BME280;55778;54.346;10.210;2023-06-01T00:04:41;101700.31;;;9.80;100.00
68793;BME280;55778;54.346;10.210;2023-06-01T00:07:07;101702.50;;;9.75;100.00
68793;BME280;55778;54.346;10.210;2023-06-01T00:09:33;101704.16;;;9.77;100.00
68793;BME280;55778;54.346;10.210;2023-06-01T00:11:58;101702.63;;;9.73;100.00
68793;BME280;55778;54.346;10.210;2023-06-01T00:14:24;101705.47;;;9.72;100.00
68793;BME280;55778;54.346;10.210;2023-06-01T00:16:49;101696.22;;;9.74;100.00
68793;BME280;55778;54.346;10.210;2023-06-01T00:19:17;101696.56;;;9.70;100.00
68793;BME280;55778;54.346;10.210;2023-06-01T00:21:42;101693.72;;;9.71;100.00
68793;BME280;55778;54.346;10.210;2023-06-01T00:24:08;101703.63;;;9.72;100.00
68793;BME280;55778;54.346;10.210;2023-06-01T00:26:33;101696.94;;;9.76;100.00
68793;BME280;55778;54.346;10.210;2023-06-01T00:29:00;101696.94;;;9.76;100.00
68793;BME280;55778;54.346;10.210;2023-06-01T00:31:25;101696.22;;;9.74;100.00
68793;BME280;55778;54.346;10.210;2023-06-01T00:33:51;101697.59;;;9.80;100.00
68793;BME280;55778;54.346;10.210;2023-06-01T00:36:19;101696.59;;;9.81;100.00
68793;BME280;55778;54.346;10.210;2023-06-01T00:38:45;101690.91;;;9.73;100.00
68793;BME280;55778;54.346;10.210;2023-06-01T00:41:10;101695.22;;;9.75;100.00
68793;BME280;55778;54.346;10.210;2023-06-01T00:43:36;101690.53;;;9.77;100.00
68793;BME280;55778;54.346;10.210;2023-06-01T00:46:01;101694.63;;;9.83;100.00
68793;BME280;55778;54.346;10.210;2023-06-01T00:48:27;101692.44;;;9.88;100.00
68793;BME280;55778;54.346;10.210;2023-06-01T00:50:52;101692.03;;;9.81;100.00
68793;BME280;55778;54.346;10.210;2023-06-01T00:53:19;101692.06;;;9.92;100.00
68793;BME280;55778;54.346;10.210;2023-06-01T00:55:46;101682.91;;;9.93;100.00
68793;BME280;55778;54.346;10.210;2023-06-01T00:58:12;101681.03;;;9.94;100.00
68793;BME280;55778;54.346;10.210;2023-06-01T01:00:38;101694.38;;;10.09;100.00
68793;BME280;55778;54.346;10.210;2023-06-01T01:03:05;101689.06;;;10.08;100.00
68793;BME280;55778;54.346;10.210;2023-06-01T01:05:33;101680.88;;;10.08;100.00
68793;BME280;55778;54.346;10.210;2023-06-01T01:11:15;101684.25;;;10.12;100.00
68793;BME280;55778;54.346;10.210;2023-06-01T01:14:22;101681.97;;;10.05;100.00
68793;BME280;55778;54.346;10.210;2023-06-01T01:16:59;101679.72;;;9.99;100.00
68793;BME280;55778;54.346;10.210;2023-06-01T01:22:22;101668.47;;;10.04;100.00
68793;BME280;55778;54.346;10.210;2023-06-01T01:28:00;101667.28;;;10.19;100.00
68793;BME280;55778;54.346;10.210;2023-06-01T01:30:35;101663.06;;;10.15;100.00
68793;BME280;55778;54.346;10.210;2023-06-01T01:33:04;101659.13;;;10.19;100.00
68793;BME280;55778;54.346;10.210;2023-06-01T01:35:31;101664.19;;;10.13;100.00
68793;BME280;55778;54.346;10.210;2023-06-01T01:37:57;101661.47;;;10.13;100.00
68793;BME280;55778;54.346;10.210;2023-06-01T01:40:23;101657.38;;;10.18;100.00
68793;BME280;55778;54.346;10.210;2023-06-01T01:42:48;101660.56;;;10.12;100.00
68793;BME280;55778;54.346;10.210;2023-06-01T01:45:15;101653.28;;;10.13;100.00
68793;BME280;55778;54.346;10.210;2023-06-01T01:48:05;101652.81;;;10.19;100.00
68793;BME280;55778;54.346;10.210;2023-06-01T01:50:41;101654.53;;;10.20;100.00
68793;BME280;55778;54.346;10.210;2023-06-01T01:53:12;101650.84;;;10.21;100.00
68793;BME280;55778;54.346;10.210;2023-06-01T01:55:38;101646.84;;;10.13;100.00
68793;BME280;55778;54.346;10.210;2023-06-01T01:58:04;101647.72;;;10.14;100.00
68793;BME280;55778;54.346;10.210;2023-06-01T02:00:32;101641.78;;;10.20;100.00
68793;BME280;55778;54.346;10.210;2023-06-01T02:03:01;101639.69;;;10.24;99.95
68793;BME280;55778;54.346;10.210;2023-06-01T02:05:27;101632.72;;;10.20;99.15
68793;BME280;55778;54.346;10.210;2023-06-01T02:07:52;101635.69;;;10.17;99.12
68793;BME280;55778;54.346;10.210;2023-06-01T02:10:18;101624.69;;;10.18;98.74
68793;BME280;55778;54.346;10.210;2023-06-01T02:12:45;101624.31;;;10.12;98.87
68793;BME280;55778;54.346;10.210;2023-06-01T02:15:12;101622.84;;;10.19;98.98
68793;BME280;55778;54.346;10.210;2023-06-01T02:17:37;101622.72;;;10.20;98.95
68793;BME280;55778;54.346;10.210;2023-06-01T02:20:03;101623.59;;;10.21;99.11
68793;BME280;55778;54.346;10.210;2023-06-01T02:22:28;101627.81;;;10.25;99.31
68793;BME280;55778;54.346;10.210;2023-06-01T02:24:54;101623.22;;;10.25;99.48
68793;BME280;55778;54.346;10.210;2023-06-01T02:27:20;101618.25;;;10.30;99.32
68793;BME280;55778;54.346;10.210;2023-06-01T02:29:45;101617.00;;;10.34;99.06
68793;BME280;55778;54.346;10.210;2023-06-01T02:32:10;101616.28;;;10.32;99.35
68793;BME280;55778;54.346;10.210;2023-06-01T02:34:36;101612.31;;;10.36;99.66
68793;BME280;55778;54.346;10.210;2023-06-01T02:37:02;101613.06;;;10.38;99.85
68793;BME280;55778;54.346;10.210;2023-06-01T02:39:27;101611.31;;;10.37;100.00
68793;BME280;55778;54.346;10.210;2023-06-01T02:41:52;101609.22;;;10.41;99.49
68793;BME280;55778;54.346;10.210;2023-06-01T02:44:18;101602.78;;;10.31;98.59
68793;BME280;55778;54.346;10.210;2023-06-01T02:46:43;101602.91;;;10.29;97.40
68793;BME280;55778;54.346;10.210;2023-06-01T02:49:08;101600.66;;;10.34;97.65
68793;BME280;55778;54.346;10.210;2023-06-01T02:51:34;101596.59;;;10.29;97.99
68793;BME280;55778;54.346;10.210;2023-06-01T02:54:00;101597.84;;;10.25;98.53
68793;BME280;55778;54.346;10.210;2023-06-01T02:56:25;101600.31;;;10.28;98.46
68793;BME280;55778;54.346;10.210;2023-06-01T02:58:59;101593.75;;;10.41;98.11
68793;BME280;55778;54.346;10.210;2023-06-01T03:04:23;101587.66;;;10.38;98.68
68793;BME280;55778;54.346;10.210;2023-06-01T03:06:54;101588.03;;;10.33;98.59
68793;BME280;55778;54.346;10.210;2023-06-01T03:09:24;101573.66;;;10.31;98.44
68793;BME280;55778;54.346;10.210;2023-06-01T03:11:52;101580.75;;;10.34;98.42
68793;BME280;55778;54.346;10.210;2023-06-01T03:14:17;101574.78;;;10.29;99.15
68793;BME280;55778;54.346;10.210;2023-06-01T03:16:42;101579.00;;;10.33;98.61
68793;BME280;55778;54.346;10.210;2023-06-01T03:19:08;101573.28;;;10.36;98.30
68793;BME280;55778;54.346;10.210;2023-06-01T03:21:33;101566.88;;;10.37;97.46
68793;BME280;55778;54.346;10.210;2023-06-01T03:23:59;101566.75;;;10.38;97.93
68793;BME280;55778;54.346;10.210;2023-06-01T03:26:24;101575.78;;;10.39;97.31
68793;BME280;55778;54.346;10.210;2023-06-01T03:28:50;101579.00;;;10.44;96.19
68793;BME280;55778;54.346;10.210;2023-06-01T03:31:16;101579.13;;;10.42;96.53
68793;BME280;55778;54.346;10.210;2023-06-01T03:33:41;101580.00;;;10.43;96.26
68793;BME280;55778;54.346;10.210;2023-06-01T03:36:07;101578.38;;;10.40;96.21
68793;BME280;55778;54.346;10.210;2023-06-01T03:38:33;101578.16;;;10.32;96.47
68793;BME280;55778;54.346;10.210;2023-06-01T03:40:59;101586.66;;;10.39;97.35
68793;BME280;55778;54.346;10.210;2023-06-01T03:43:25;101571.22;;;10.50;96.64
68793;BME280;55778;54.346;10.210;2023-06-01T03:45:51;101575.03;;;10.48;96.25
68793;BME280;55778;54.346;10.210;2023-06-01T03:48:42;101574.31;;;10.46;96.33
68793;BME280;55778;54.346;10.210;2023-06-01T03:51:10;101558.69;;;10.48;96.87
68793;BME280;55778;54.346;10.210;2023-06-01T03:53:52;101560.31;;;10.50;96.70
68793;BME280;55778;54.346;10.210;2023-06-01T03:56:47;101564.88;;;10.50;96.73
68793;BME280;55778;54.346;10.210;2023-06-01T03:59:48;101562.03;;;10.51;96.51
68793;BME280;55778;54.346;10.210;2023-06-01T04:02:14;101575.66;;;10.40;96.82
68793;BME280;55778;54.346;10.210;2023-06-01T04:05:03;101576.16;;;10.45;96.39
68793;BME280;55778;54.346;10.210;2023-06-01T04:07:54;101568.47;;;10.50;96.26
68793;BME280;55778;54.346;10.210;2023-06-01T04:10:47;101573.69;;;10.53;96.53
68793;BME280;55778;54.346;10.210;2023-06-01T04:16:59;101562.03;;;10.62;96.42
68793;BME280;55778;54.346;10.210;2023-06-01T04:20:09;101563.63;;;10.65;96.03
68793;BME280;55778;54.346;10.210;2023-06-01T04:23:36;101557.66;;;10.71;95.74
68793;BME280;55778;54.346;10.210;2023-06-01T04:26:12;101558.38;;;10.73;95.69
68793;BME280;55778;54.346;10.210;2023-06-01T04:32:34;101542.66;;;10.65;95.72
68793;BME280;55778;54.346;10.210;2023-06-01T04:35:20;101549.59;;;10.69;95.74
68793;BME280;55778;54.346;10.210;2023-06-01T04:38:21;101548.84;;;10.67;95.43
68793;BME280;55778;54.346;10.210;2023-06-01T04:41:04;101543.66;;;10.75;95.53
68793;BME280;55778;54.346;10.210;2023-06-01T04:44:19;101539.81;;;10.67;95.45
68793;BME280;55778;54.346;10.210;2023-06-01T04:47:28;101538.44;;;10.72;95.47
68793;BME280;55778;54.346;10.210;2023-06-01T04:50:08;101532.50;;;10.78;95.15
68793;BME280;55778;54.346;10.210;2023-06-01T04:52:36;101537.06;;;10.78;95.70
68793;BME280;55778;54.346;10.210;2023-06-01T04:55:02;101548.16;;;10.97;94.86
68793;BME280;55778;54.346;10.210;2023-06-01T04:57:30;101548.22;;;10.86;94.90
68793;BME280;55778;54.346;10.210;2023-06-01T04:59:55;101556.72;;;10.92;94.41
68793;BME280;55778;54.346;10.210;2023-06-01T05:02:23;101552.50;;;10.99;94.65
68793;BME280;55778;54.346;10.210;2023-06-01T05:04:49;101550.16;;;10.95;95.46
68793;BME280;55778;54.346;10.210;2023-06-01T05:07:14;101548.78;;;11.00;94.85
68793;BME280;55778;54.346;10.210;2023-06-01T05:09:40;101539.94;;;11.08;94.84
68793;BME280;55778;54.346;10.210;2023-06-01T05:12:05;101533.25;;;11.01;94.94
68793;BME280;55778;54.346;10.210;2023-06-01T05:14:31;101532.03;;;11.05;94.87
68793;BME280;55778;54.346;10.210;2023-06-01T05:16:57;101533.88;;;11.04;93.93
68793;BME280;55778;54.346;10.210;2023-06-01T05:19:22;101523.59;;;10.97;93.11
68793;BME280;55778;54.346;10.210;2023-06-01T05:21:47;101531.59;;;10.89;92.78
68793;BME280;55778;54.346;10.210;2023-06-01T05:24:13;101525.50;;;10.96;92.56
68793;BME280;55778;54.346;10.210;2023-06-01T05:26:38;101524.44;;;10.77;91.46
68793;BME280;55778;54.346;10.210;2023-06-01T05:29:03;101527.75;;;10.80;91.37
68793;BME280;55778;54.346;10.210;2023-06-01T05:31:29;101524.31;;;10.78;91.62
68793;BME280;55778;54.346;10.210;2023-06-01T05:33:55;101527.03;;;10.78;92.12
68793;BME280;55778;54.346;10.210;2023-06-01T05:36:22;101522.56;;;10.77;91.81
68793;BME280;55778;54.346;10.210;2023-06-01T05:38:47;101523.88;;;10.94;92.02
68793;BME280;55778;54.346;10.210;2023-06-01T05:41:12;101517.69;;;10.92;92.26
68793;BME280;55778;54.346;10.210;2023-06-01T05:43:38;101516.63;;;11.04;91.65
68793;BME280;55778;54.346;10.210;2023-06-01T05:46:03;101519.63;;;11.01;92.41
68793;BME280;55778;54.346;10.210;2023-06-01T05:48:29;101520.63;;;11.00;92.62
68793;BME280;55778;54.346;10.210;2023-06-01T05:50:55;101519.84;;;11.09;91.94
68793;BME280;55778;54.346;10.210;2023-06-01T05:53:20;101514.47;;;10.98;92.24
68793;BME280;55778;54.346;10.210;2023-06-01T05:55:50;101515.69;;;10.94;92.95
68793;BME280;55778;54.346;10.210;2023-06-01T05:58:16;101526.00;;;10.90;92.98
68793;BME280;55778;54.346;10.210;2023-06-01T06:00:41;101525.06;;;11.01;92.11
68793;BME280;55778;54.346;10.210;2023-06-01T06:03:06;101525.50;;;10.96;91.37
68793;BME280;55778;54.346;10.210;2023-06-01T06:05:32;101522.34;;;11.01;91.01
68793;BME280;55778;54.346;10.210;2023-06-01T06:07:57;101528.47;;;10.93;92.07
68793;BME280;55778;54.346;10.210;2023-06-01T06:10:23;101525.81;;;11.03;91.86
68793;BME280;55778;54.346;10.210;2023-06-01T06:12:50;101519.44;;;11.13;90.95
68793;BME280;55778;54.346;10.210;2023-06-01T06:15:18;101532.34;;;11.11;91.68
68793;BME280;55778;54.346;10.210;2023-06-01T06:17:44;101520.66;;;11.20;90.30
68793;BME280;55778;54.346;10.210;2023-06-01T06:20:10;101523.38;;;11.20;89.23
68793;BME280;55778;54.346;10.210;2023-06-01T06:22:54;101514.63;;;11.17;89.47
68793;BME280;55778;54.346;10.210;2023-06-01T06:25:22;101510.84;;;11.29;88.09
68793;BME280;55778;54.346;10.210;2023-06-01T06:27:57;101503.47;;;11.09;87.96
68793;BME280;55778;54.346;10.210;2023-06-01T06:30:22;101513.34;;;11.21;88.28
68793;BME280;55778;54.346;10.210;2023-06-01T06:32:49;101507.41;;;11.16;87.46
68793;BME280;55778;54.346;10.210;2023-06-01T06:35:15;101500.72;;;11.20;87.32
68793;BME280;55778;54.346;10.210;2023-06-01T06:37:40;101508.16;;;11.18;87.67
68793;BME280;55778;54.346;10.210;2023-06-01T06:40:08;101510.34;;;11.24;87.12
68793;BME280;55778;54.346;10.210;2023-06-01T06:42:34;101515.06;;;11.22;87.82
68793;BME280;55778;54.346;10.210;2023-06-01T06:45:00;101526.19;;;11.50;87.42
68793;BME280;55778;54.346;10.210;2023-06-01T06:47:25;101509.59;;;11.42;86.17
68793;BME280;55778;54.346;10.210;2023-06-01T06:49:51;101514.22;;;11.42;85.86
68793;BME280;55778;54.346;10.210;2023-06-01T06:52:17;101510.69;;;11.51;85.99
68793;BME280;55778;54.346;10.210;2023-06-01T06:54:42;101507.22;;;11.28;85.77
68793;BME280;55778;54.346;10.210;2023-06-01T06:57:08;101504.91;;;11.44;86.13
68793;BME280;55778;54.346;10.210;2023-06-01T06:59:33;101508.69;;;11.73;85.23
68793;BME280;55778;54.346;10.210;2023-06-01T07:01:59;101521.34;;;11.95;86.82
68793;BME280;55778;54.346;10.210;2023-06-01T07:04:24;101518.94;;;12.01;84.03
68793;BME280;55778;54.346;10.210;2023-06-01T07:06:49;101517.56;;;11.86;83.73
68793;BME280;55778;54.346;10.210;2023-06-01T07:09:16;101509.22;;;11.88;84.64
68793;BME280;55778;54.346;10.210;2023-06-01T07:11:42;101512.00;;;11.97;84.16
68793;BME280;55778;54.346;10.210;2023-06-01T07:14:10;101516.75;;;11.95;83.99
68793;BME280;55778;54.346;10.210;2023-06-01T07:16:36;101508.91;;;12.12;83.32
68793;BME280;55778;54.346;10.210;2023-06-01T07:19:01;101515.66;;;12.07;83.30
68793;BME280;55778;54.346;10.210;2023-06-01T07:21:27;101524.09;;;11.74;83.35
68793;BME280;55778;54.346;10.210;2023-06-01T07:23:52;101511.63;;;11.81;83.40
68793;BME280;55778;54.346;10.210;2023-06-01T07:26:18;101510.94;;;11.89;84.24
68793;BME280;55778;54.346;10.210;2023-06-01T07:28:48;101513.97;;;12.16;83.82
68793;BME280;55778;54.346;10.210;2023-06-01T07:31:21;101515.00;;;12.25;82.85
68793;BME280;55778;54.346;10.210;2023-06-01T07:33:46;101514.59;;;11.99;83.84
68793;BME280;55778;54.346;10.210;2023-06-01T07:36:12;101514.19;;;12.03;83.44
68793;BME280;55778;54.346;10.210;2023-06-01T07:38:37;101502.19;;;12.25;82.16
68793;BME280;55778;54.346;10.210;2023-06-01T07:41:06;101499.09;;;12.49;83.09
68793;BME280;55778;54.346;10.210;2023-06-01T07:43:31;101496.38;;;12.58;81.51
68793;BME280;55778;54.346;10.210;2023-06-01T07:45:56;101494.34;;;12.51;80.33
68793;BME280;55778;54.346;10.210;2023-06-01T07:48:22;101489.63;;;12.62;81.22
68793;BME280;55778;54.346;10.210;2023-06-01T07:50:48;101485.44;;;12.49;81.14
68793;BME280;55778;54.346;10.210;2023-06-01T07:53:14;101487.19;;;12.69;81.01
68793;BME280;55778;54.346;10.210;2023-06-01T07:55:39;101502.34;;;12.33;81.25
68793;BME280;55778;54.346;10.210;2023-06-01T07:58:05;101499.38;;;12.46;82.11
68793;BME280;55778;54.346;10.210;2023-06-01T08:00:31;101499.38;;;12.46;82.01
68793;BME280;55778;54.346;10.210;2023-06-01T08:02:56;101493.81;;;12.66;81.18
68793;BME280;55778;54.346;10.210;2023-06-01T08:05:24;101497.28;;;12.78;81.53
68793;BME280;55778;54.346;10.210;2023-06-01T08:07:50;101506.34;;;12.78;80.10
68793;BME280;55778;54.346;10.210;2023-06-01T08:10:15;101505.19;;;12.71;81.24
68793;BME280;55778;54.346;10.210;2023-06-01T08:12:41;101508.50;;;12.75;81.32
68793;BME280;55778;54.346;10.210;2023-06-01T08:15:08;101504.78;;;12.76;80.25
68793;BME280;55778;54.346;10.210;2023-06-01T08:17:34;101507.66;;;12.74;80.58
68793;BME280;55778;54.346;10.210;2023-06-01T08:19:59;101508.63;;;12.73;80.53
68793;BME280;55778;54.346;10.210;2023-06-01T08:22:25;101517.41;;;12.58;80.11
68793;BME280;55778;54.346;10.210;2023-06-01T08:24:50;101511.38;;;12.73;80.65
68793;BME280;55778;54.346;10.210;2023-06-01T08:27:20;101497.63;;;13.13;79.52
68793;BME280;55778;54.346;10.210;2023-06-01T08:29:46;101497.78;;;13.11;78.57
68793;BME280;55778;54.346;10.210;2023-06-01T08:32:12;101502.81;;;13.35;78.83
68793;BME280;55778;54.346;10.210;2023-06-01T08:34:38;101494.31;;;13.09;77.81
68793;BME280;55778;54.346;10.210;2023-06-01T08:37:04;101511.59;;;13.19;78.65
68793;BME280;55778;54.346;10.210;2023-06-01T08:39:30;101503.81;;;13.24;78.92
68793;BME280;55778;54.346;10.210;2023-06-01T08:42:08;101501.75;;;13.55;76.65
68793;BME280;55778;54.346;10.210;2023-06-01T08:44:39;101492.41;;;13.48;77.26
68793;BME280;55778;54.346;10.210;2023-06-01T08:47:05;101489.03;;;13.73;76.56
68793;BME280;55778;54.346;10.210;2023-06-01T08:49:32;101483.25;;;13.85;75.89
68793;BME280;55778;54.346;10.210;2023-06-01T08:52:14;101499.44;;;13.60;75.53
68793;BME280;55778;54.346;10.210;2023-06-01T08:54:43;101484.28;;;13.65;76.27
68793;BME280;55778;54.346;10.210;2023-06-01T08:57:08;101492.13;;;13.51;77.16
68793;BME280;55778;54.346;10.210;2023-06-01T08:59:34;101485.91;;;13.58;77.38
68793;BME280;55778;54.346;10.210;2023-06-01T09:02:00;101497.53;;;13.79;75.96
68793;BME280;55778;54.346;10.210;2023-06-01T09:04:28;101497.19;;;14.56;75.01
68793;BME280;55778;54.346;10.210;2023-06-01T09:06:57;101482.56;;;14.65;72.20
68793;BME280;55778;54.346;10.210;2023-06-01T09:09:25;101479.97;;;14.63;72.74
68793;BME280;55778;54.346;10.210;2023-06-01T09:14:40;101481.19;;;14.78;71.94
68793;BME280;55778;54.346;10.210;2023-06-01T09:17:06;101485.72;;;14.70;72.47
68793;BME280;55778;54.346;10.210;2023-06-01T09:19:42;101478.09;;;14.46;72.73
68793;BME280;55778;54.346;10.210;2023-06-01T09:22:11;101477.91;;;14.11;73.40
68793;BME280;55778;54.346;10.210;2023-06-01T09:24:37;101480.88;;;14.37;71.84
68793;BME280;55778;54.346;10.210;2023-06-01T09:27:03;101474.47;;;14.46;71.83
68793;BME280;55778;54.346;10.210;2023-06-01T09:29:29;101472.72;;;14.89;70.83
68793;BME280;55778;54.346;10.210;2023-06-01T09:31:55;101469.44;;;15.64;69.73
68793;BME280;55778;54.346;10.210;2023-06-01T09:34:21;101468.25;;;14.88;68.85
68793;BME280;55778;54.346;10.210;2023-06-01T09:36:52;101465.09;;;15.18;69.74
68793;BME280;55778;54.346;10.210;2023-06-01T09:39:22;101461.03;;;14.87;69.65
68793;BME280;55778;54.346;10.210;2023-06-01T09:41:52;101456.63;;;15.12;69.36
68793;BME280;55778;54.346;10.210;2023-06-01T09:44:38;101452.31;;;15.70;68.35
68793;BME280;55778;54.346;10.210;2023-06-01T09:47:08;101454.38;;;15.25;68.81
68793;BME280;55778;54.346;10.210;2023-06-01T09:49:43;101456.56;;;15.21;70.43
68793;BME280;55778;54.346;10.210;2023-06-01T09:52:10;101443.56;;;15.49;69.48
68793;BME280;55778;54.346;10.210;2023-06-01T09:54:46;101450.50;;;15.53;70.81
68793;BME280;55778;54.346;10.210;2023-06-01T09:57:12;101450.69;;;15.85;70.85
68793;BME280;55778;54.346;10.210;2023-06-01T09:59:42;101438.34;;;16.31;66.28
68793;BME280;55778;54.346;10.210;2023-06-01T10:02:21;101443.53;;;15.41;66.94
68793;BME280;55778;54.346;10.210;2023-06-01T10:04:48;101438.31;;;15.81;66.05
68793;BME280;55778;54.346;10.210;2023-06-01T10:07:15;101448.41;;;16.14;66.51
68793;BME280;55778;54.346;10.210;2023-06-01T10:09:43;101443.00;;;16.72;64.60
68793;BME280;55778;54.346;10.210;2023-06-01T10:12:09;101440.00;;;16.08;64.86
68793;BME280;55778;54.346;10.210;2023-06-01T10:14:37;101448.19;;;16.33;64.61
68793;BME280;55778;54.346;10.210;2023-06-01T10:17:04;101430.09;;;16.31;63.18
68793;BME280;55778;54.346;10.210;2023-06-01T10:19:29;101440.72;;;15.84;64.30
68793;BME280;55778;54.346;10.210;2023-06-01T10:21:59;101435.66;;;15.71;65.61
68793;BME280;55778;54.346;10.210;2023-06-01T10:24:25;101430.50;;;15.68;66.48
68793;BME280;55778;54.346;10.210;2023-06-01T10:29:23;101411.38;;;16.34;63.24
68793;BME280;55778;54.346;10.210;2023-06-01T10:31:49;101421.66;;;16.66;62.17
68793;BME280;55778;54.346;10.210;2023-06-01T10:34:36;101410.28;;;16.61;62.09
68793;BME280;55778;54.346;10.210;2023-06-01T10:42:37;101418.75;;;16.67;60.42
68793;BME280;55778;54.346;10.210;2023-06-01T10:53:01;101409.28;;;16.70;61.78
68793;BME280;55778;54.346;10.210;2023-06-01T10:58:44;101401.75;;;16.38;61.24
68793;BME280;55778;54.346;10.210;2023-06-01T11:01:31;101409.41;;;16.52;60.96
68793;BME280;55778;54.346;10.210;2023-06-01T11:03:57;101404.19;;;16.41;61.95
68793;BME280;55778;54.346;10.210;2023-06-01T11:09:55;101407.41;;;17.26;59.62
68793;BME280;55778;54.346;10.210;2023-06-01T11:12:20;101398.47;;;16.92;61.98
68793;BME280;55778;54.346;10.210;2023-06-01T11:21:22;101395.34;;;16.87;60.49
68793;BME280;55778;54.346;10.210;2023-06-01T11:23:49;101405.84;;;17.40;60.63
68793;BME280;55778;54.346;10.210;2023-06-01T11:26:16;101392.84;;;17.97;57.81
68793;BME280;55778;54.346;10.210;2023-06-01T11:28:42;101397.00;;;17.84;56.18
68793;BME280;55778;54.346;10.210;2023-06-01T11:31:15;101390.28;;;18.26;56.76
68793;BME280;55778;54.346;10.210;2023-06-01T11:33:51;101389.44;;;17.70;58.52
68793;BME280;55778;54.346;10.210;2023-06-01T11:36:23;101394.50;;;17.19;59.46
68793;BME280;55778;54.346;10.210;2023-06-01T11:38:51;101399.31;;;17.17;60.70
68793;BME280;55778;54.346;10.210;2023-06-01T11:41:19;101396.38;;;17.58;59.45
68793;BME280;55778;54.346;10.210;2023-06-01T11:43:56;101383.75;;;17.80;57.07
68793;BME280;55778;54.346;10.210;2023-06-01T11:46:22;101386.34;;;18.20;57.00
68793;BME280;55778;54.346;10.210;2023-06-01T11:49:05;101377.19;;;18.58;57.41
68793;BME280;55778;54.346;10.210;2023-06-01T11:51:38;101383.72;;;18.27;55.93
68793;BME280;55778;54.346;10.210;2023-06-01T11:54:07;101389.41;;;17.86;56.40
68793;BME280;55778;54.346;10.210;2023-06-01T11:56:35;101388.34;;;17.96;56.74
68793;BME280;55778;54.346;10.210;2023-06-01T11:59:04;101372.38;;;17.83;56.47
68793;BME280;55778;54.346;10.210;2023-06-01T12:01:34;101388.22;;;18.28;56.47
68793;BME280;55778;54.346;10.210;2023-06-01T12:04:00;101389.03;;;18.28;56.83
68793;BME280;55778;54.346;10.210;2023-06-01T12:06:27;101383.53;;;18.28;55.45
68793;BME280;55778;54.346;10.210;2023-06-01T12:08:56;101376.28;;;18.66;54.38
68793;BME280;55778;54.346;10.210;2023-06-01T12:11:24;101372.75;;;18.49;53.19
68793;BME280;55778;54.346;10.210;2023-06-01T12:13:56;101370.34;;;18.46;53.81
68793;BME280;55778;54.346;10.210;2023-06-01T12:16:23;101373.19;;;18.30;52.19
68793;BME280;55778;54.346;10.210;2023-06-01T12:18:51;101364.88;;;18.00;54.00
68793;BME280;55778;54.346;10.210;2023-06-01T12:21:17;101381.94;;;17.48;55.35
68793;BME280;55778;54.346;10.210;2023-06-01T12:23:48;101383.94;;;17.62;55.72
68793;BME280;55778;54.346;10.210;2023-06-01T12:26:14;101380.53;;;17.60;54.51
68793;BME280;55778;54.346;10.210;2023-06-01T12:28:48;101378.44;;;17.62;55.83
68793;BME280;55778;54.346;10.210;2023-06-01T12:31:15;101373.69;;;17.95;55.13
68793;BME280;55778;54.346;10.210;2023-06-01T12:33:42;101371.25;;;17.21;54.28
68793;BME280;55778;54.346;10.210;2023-06-01T12:36:28;101363.16;;;17.28;54.38
68793;BME280;55778;54.346;10.210;2023-06-01T12:38:56;101365.06;;;17.35;54.92
68793;BME280;55778;54.346;10.210;2023-06-01T12:41:24;101362.94;;;18.08;53.79
68793;BME280;55778;54.346;10.210;2023-06-01T12:43:50;101366.38;;;18.10;51.63
68793;BME280;55778;54.346;10.210;2023-06-01T12:46:29;101369.78;;;18.20;52.60
68793;BME280;55778;54.346;10.210;2023-06-01T12:49:15;101363.75;;;18.55;51.99
68793;BME280;55778;54.346;10.210;2023-06-01T12:51:42;101358.69;;;17.98;53.85
68793;BME280;55778;54.346;10.210;2023-06-01T12:54:07;101361.59;;;17.49;53.83
68793;BME280;55778;54.346;10.210;2023-06-01T12:56:33;101364.53;;;17.32;55.12
68793;BME280;55778;54.346;10.210;2023-06-01T12:58:58;101353.09;;;17.75;54.24
68793;BME280;55778;54.346;10.210;2023-06-01T13:01:24;101355.31;;;17.71;55.23
68793;BME280;55778;54.346;10.210;2023-06-01T13:03:50;101353.78;;;18.16;53.98
68793;BME280;55778;54.346;10.210;2023-06-01T13:06:17;101359.59;;;17.90;54.00
68793;BME280;55778;54.346;10.210;2023-06-01T13:08:42;101357.38;;;17.77;54.69
68793;BME280;55778;54.346;10.210;2023-06-01T13:11:08;101364.91;;;17.92;54.11
68793;BME280;55778;54.346;10.210;2023-06-01T13:13:34;101348.63;;;17.74;54.11
68793;BME280;55778;54.346;10.210;2023-06-01T13:15:59;101355.31;;;17.71;53.56
68793;BME280;55778;54.346;10.210;2023-06-01T13:18:25;101365.56;;;17.31;55.20
68793;BME280;55778;54.346;10.210;2023-06-01T13:20:50;101357.59;;;17.60;55.46
68793;BME280;55778;54.346;10.210;2023-06-01T13:23:16;101356.66;;;16.97;56.99
68793;BME280;55778;54.346;10.210;2023-06-01T13:25:43;101362.28;;;17.35;57.59
68793;BME280;55778;54.346;10.210;2023-06-01T13:28:08;101365.06;;;17.35;56.17
68793;BME280;55778;54.346;10.210;2023-06-01T13:30:34;101344.69;;;17.52;56.81
68793;BME280;55778;54.346;10.210;2023-06-01T13:33:01;101356.78;;;17.43;56.70
68793;BME280;55778;54.346;10.210;2023-06-01T13:35:27;101359.38;;;17.37;55.87
68793;BME280;55778;54.346;10.210;2023-06-01T13:37:53;101356.47;;;17.06;55.56
68793;BME280;55778;54.346;10.210;2023-06-01T13:40:18;101364.69;;;17.46;55.28
68793;BME280;55778;54.346;10.210;2023-06-01T13:42:48;101358.66;;;17.35;55.44